Atica — EA4943 — position and weather

sailwx.info

Track history (hours):
 
Tides and Currents Weather Stations Pressure Air Temp Water Temp Dewpoint Dewpoint Depression Visibility Wind Speed Wind Dir Waves Ship Positions

Atica

Last reported at 2017-Aug-20 23:50 UTC. Time now 2017-Sep-26 06:01 UTC.
Position N 37°27' W 000°53'.
Warning: this ship's position is 36 days out of date.

Type: Sailing vessel. MMSI: 224499180.

Date/timePositionNaut miles runAvg speedWind from/ knotsBaromVisibWave heightAir tempDewpointWater temp
2017-Aug-20 23:50N 37°27' W 000°53'4 6.3
2017-Aug-20 23:09N 37°30' W 000°48'1 6.9
2017-Aug-20 22:56N 37°31' W 000°47'124 3.1
2017-Aug-19 06:17N 38°42' E 001°23'2 6.0
2017-Aug-19 05:55N 38°44' E 001°24'2 0.1
2017-Aug-18 17:04N 38°44' E 001°25'1 3.5
2017-Aug-18 16:54N 38°45' E 001°25'3 7.1
2017-Aug-18 16:27N 38°47' E 001°22'4 7.5
2017-Aug-18 15:56N 38°49' E 001°18'18 4.1
2017-Aug-18 11:29N 39°06' E 001°27'3 7.2
2017-Aug-18 11:00N 39°08' E 001°31'4 8.0
2017-Aug-18 10:30N 39°09' E 001°35'4 7.9
2017-Aug-18 09:59N 39°11' E 001°40'4 8.0
2017-Aug-18 09:27N 39°13' E 001°45'4 7.9
2017-Aug-18 08:57N 39°15' E 001°49'4 7.9
2017-Aug-18 08:29N 39°17' E 001°53'4 7.4
2017-Aug-18 08:00N 39°19' E 001°57'4 7.2
2017-Aug-18 07:30N 39°20' E 002°01'4 7.2
2017-Aug-18 06:59N 39°22' E 002°06'3 7.2
2017-Aug-18 06:30N 39°24' E 002°10'4 7.0
2017-Aug-18 05:57N 39°26' E 002°14'3 7.1
2017-Aug-18 05:29N 39°27' E 002°18'3 6.8
2017-Aug-18 04:59N 39°29' E 002°22'3 7.0
2017-Aug-18 04:30N 39°30' E 002°26'2 0.1
2017-Aug-16 18:40N 39°31' E 002°28'1 7.3
2017-Aug-16 18:30N 39°31' E 002°26'16 5.3
2017-Aug-16 15:32N 39°45' E 002°36'1 7.3
2017-Aug-16 15:26N 39°45' E 002°37'3 7.1
2017-Aug-16 14:59N 39°47' E 002°40'1 2.7
2017-Aug-16 14:30N 39°48' E 002°41'0 0.0
2017-Aug-16 14:00N 39°48' E 002°41'0 0.0
2017-Aug-16 13:30N 39°48' E 002°41'0 0.0
2017-Aug-16 12:57N 39°48' E 002°41'0 0.0
2017-Aug-16 12:30N 39°48' E 002°41'0 0.0
2017-Aug-16 11:57N 39°48' E 002°41'0 0.0
2017-Aug-16 11:21N 39°48' E 002°41'0 0.0
2017-Aug-16 10:57N 39°48' E 002°41'0 0.0
2017-Aug-16 10:30N 39°48' E 002°41'0 0.0
2017-Aug-16 10:00N 39°48' E 002°41'0 0.0
2017-Aug-16 09:30N 39°48' E 002°41'0 0.0
2017-Aug-16 09:00N 39°48' E 002°41'0 0.0
2017-Aug-16 08:27N 39°48' E 002°41'0 0.3
2017-Aug-16 07:59N 39°48' E 002°41'1 2.0
2017-Aug-16 07:15N 39°49' E 002°43'0 0.9
2017-Aug-16 07:00N 39°49' E 002°42'12 0.8
2017-Aug-15 16:04N 39°55' E 002°56'  
Track history (hours):
 
Tides and Currents Weather Stations Pressure Air Temp Water Temp Dewpoint Dewpoint Depression Visibility Wind Speed Wind Dir Waves Ship Positions

Atica

Last reported at 2017-Aug-20 23:50 UTC. Time now 2017-Sep-26 06:01 UTC.
Position N 37°27' W 000°53'.
Warning: this ship's position is 36 days out of date.

Type: Sailing vessel. MMSI: 224499180.

Date/timePositionNaut miles runAvg speedWind from/ knotsBaromVisibWave heightAir tempDewpointWater temp
2017-Aug-20 23:50N 37°27' W 000°53'4 6.3
2017-Aug-20 23:09N 37°30' W 000°48'1 6.9
2017-Aug-20 22:56N 37°31' W 000°47'124 3.1
2017-Aug-19 06:17N 38°42' E 001°23'2 6.0
2017-Aug-19 05:55N 38°44' E 001°24'2 0.1
2017-Aug-18 17:04N 38°44' E 001°25'1 3.5
2017-Aug-18 16:54N 38°45' E 001°25'3 7.1
2017-Aug-18 16:27N 38°47' E 001°22'4 7.5
2017-Aug-18 15:56N 38°49' E 001°18'18 4.1
2017-Aug-18 11:29N 39°06' E 001°27'3 7.2
2017-Aug-18 11:00N 39°08' E 001°31'4 8.0
2017-Aug-18 10:30N 39°09' E 001°35'4 7.9
2017-Aug-18 09:59N 39°11' E 001°40'4 8.0
2017-Aug-18 09:27N 39°13' E 001°45'4 7.9
2017-Aug-18 08:57N 39°15' E 001°49'4 7.9
2017-Aug-18 08:29N 39°17' E 001°53'4 7.4
2017-Aug-18 08:00N 39°19' E 001°57'4 7.2
2017-Aug-18 07:30N 39°20' E 002°01'4 7.2
2017-Aug-18 06:59N 39°22' E 002°06'3 7.2
2017-Aug-18 06:30N 39°24' E 002°10'4 7.0
2017-Aug-18 05:57N 39°26' E 002°14'3 7.1
2017-Aug-18 05:29N 39°27' E 002°18'3 6.8
2017-Aug-18 04:59N 39°29' E 002°22'3 7.0
2017-Aug-18 04:30N 39°30' E 002°26'2 0.1
2017-Aug-16 18:40N 39°31' E 002°28'1 7.3
2017-Aug-16 18:30N 39°31' E 002°26'16 5.3
2017-Aug-16 15:32N 39°45' E 002°36'1 7.3
2017-Aug-16 15:26N 39°45' E 002°37'3 7.1
2017-Aug-16 14:59N 39°47' E 002°40'1 2.7
2017-Aug-16 14:30N 39°48' E 002°41'0 0.0
2017-Aug-16 14:00N 39°48' E 002°41'0 0.0
2017-Aug-16 13:30N 39°48' E 002°41'0 0.0
2017-Aug-16 12:57N 39°48' E 002°41'0 0.0
2017-Aug-16 12:30N 39°48' E 002°41'0 0.0
2017-Aug-16 11:57N 39°48' E 002°41'0 0.0
2017-Aug-16 11:21N 39°48' E 002°41'0 0.0
2017-Aug-16 10:57N 39°48' E 002°41'0 0.0
2017-Aug-16 10:30N 39°48' E 002°41'0 0.0
2017-Aug-16 10:00N 39°48' E 002°41'0 0.0
2017-Aug-16 09:30N 39°48' E 002°41'0 0.0
2017-Aug-16 09:00N 39°48' E 002°41'0 0.0
2017-Aug-16 08:27N 39°48' E 002°41'0 0.3
2017-Aug-16 07:59N 39°48' E 002°41'1 2.0
2017-Aug-16 07:15N 39°49' E 002°43'0 0.9
2017-Aug-16 07:00N 39°49' E 002°42'12 0.8
2017-Aug-15 16:04N 39°55' E 002°56'  

Dump ship's entire track history